createdAt,value
2018-02-05T00:01:45.171Z,-1.18
2018-02-05T00:04:13.731Z,-1.21
2018-02-05T00:06:42.949Z,-1.22
2018-02-05T00:09:17.258Z,-1.24
2018-02-05T00:11:47.549Z,-1.24
2018-02-05T00:14:20.268Z,-1.25
2018-02-05T00:16:51.500Z,-1.27
2018-02-05T00:19:23.287Z,-1.28
2018-02-05T00:21:53.569Z,-1.28
2018-02-05T00:24:28.112Z,-1.32
2018-02-05T00:26:58.436Z,-1.31
2018-02-05T00:29:30.849Z,-1.34
2018-02-05T00:31:59.332Z,-1.37
2018-02-05T00:34:29.735Z,-1.40
2018-02-05T00:37:00.980Z,-1.42
2018-02-05T00:39:34.070Z,-1.44
2018-02-05T00:42:04.389Z,-1.41
2018-02-05T00:44:38.491Z,-1.42
2018-02-05T00:49:42.439Z,-1.42
2018-02-05T00:52:14.209Z,-1.43
2018-02-05T00:54:47.502Z,-1.45
2018-02-05T00:57:15.969Z,-1.46
2018-02-05T00:59:46.229Z,-1.43
2018-02-05T01:02:25.215Z,-1.42
2018-02-05T01:05:01.948Z,-1.41
2018-02-05T01:07:32.215Z,-1.42
2018-02-05T01:10:00.802Z,-1.43
2018-02-05T01:12:31.957Z,-1.42
2018-02-05T01:15:01.251Z,-1.42
2018-02-05T01:17:31.559Z,-1.42
2018-02-05T01:20:01.788Z,-1.42
2018-02-05T01:22:30.488Z,-1.43
2018-02-05T01:25:00.793Z,-1.46
2018-02-05T01:27:30.173Z,-1.47
2018-02-05T01:29:58.713Z,-1.46
2018-02-05T01:32:29.017Z,-1.46
2018-02-05T01:35:00.038Z,-1.49
2018-02-05T01:37:30.395Z,-1.48
2018-02-05T01:40:02.880Z,-1.48
2018-02-05T01:42:33.521Z,-1.47
2018-02-05T01:45:02.613Z,-1.44
2018-02-05T01:47:31.907Z,-1.43
2018-02-05T01:50:01.103Z,-1.42
2018-02-05T01:52:30.423Z,-1.40
2018-02-05T01:54:59.719Z,-1.37
2018-02-05T01:57:29.781Z,-1.34
2018-02-05T01:59:58.530Z,-1.33
2018-02-05T02:02:28.957Z,-1.31
2018-02-05T02:04:58.360Z,-1.29
2018-02-05T02:07:29.663Z,-1.28
2018-02-05T02:09:59.930Z,-1.29
2018-02-05T02:12:30.721Z,-1.29
2018-02-05T02:15:05.042Z,-1.29
2018-02-05T02:17:33.576Z,-1.29
2018-02-05T02:20:04.776Z,-1.27
2018-02-05T02:22:34.905Z,-1.24
2018-02-05T02:25:05.277Z,-1.27
2018-02-05T02:27:41.957Z,-1.29
2018-02-05T02:30:10.828Z,-1.26
2018-02-05T02:32:43.778Z,-1.26
2018-02-05T02:35:15.162Z,-1.23
2018-02-05T02:37:48.643Z,-1.28
2018-02-05T02:40:19.304Z,-1.29
2018-02-05T02:42:50.968Z,-1.32
2018-02-05T02:45:19.953Z,-1.30
2018-02-05T02:47:50.228Z,-1.27
2018-02-05T02:50:21.690Z,-1.26
2018-02-05T02:52:59.270Z,-1.25
2018-02-05T02:55:31.922Z,-1.24
2018-02-05T02:58:02.018Z,-1.23
2018-02-05T03:00:32.630Z,-1.23
2018-02-05T03:03:01.124Z,-1.24
2018-02-05T03:05:31.166Z,-1.24
2018-02-05T03:08:01.476Z,-1.23
2018-02-05T03:10:34.136Z,-1.24
2018-02-05T03:13:03.652Z,-1.24
2018-02-05T03:15:33.965Z,-1.25
2018-02-05T03:18:05.522Z,-1.27
2018-02-05T03:20:33.960Z,-1.27
2018-02-05T03:23:04.122Z,-1.29
2018-02-05T03:25:34.210Z,-1.33
2018-02-05T03:28:04.365Z,-1.36
2018-02-05T03:30:38.016Z,-1.42
2018-02-05T03:35:41.365Z,-1.49
2018-02-05T03:38:14.057Z,-1.49
2018-02-05T03:40:45.331Z,-1.50
2018-02-05T03:43:18.331Z,-1.53
2018-02-05T03:45:48.716Z,-1.55
2018-02-05T03:48:19.794Z,-1.61
2018-02-05T03:50:50.040Z,-1.65
2018-02-05T03:53:31.262Z,-1.66
2018-02-05T03:56:01.586Z,-1.67
2018-02-05T03:58:34.606Z,-1.67
2018-02-05T04:01:05.652Z,-1.68
2018-02-05T04:03:38.937Z,-1.69
2018-02-05T04:06:10.189Z,-1.69
2018-02-05T04:08:39.809Z,-1.72
2018-02-05T04:11:09.190Z,-1.75
2018-02-05T04:13:39.627Z,-1.77
2018-02-05T04:16:09.908Z,-1.77
2018-02-05T04:18:42.473Z,-1.78
2018-02-05T04:21:11.224Z,-1.78
2018-02-05T04:23:39.831Z,-1.79
2018-02-05T04:26:11.603Z,-1.82
2018-02-05T04:28:41.767Z,-1.85
2018-02-05T04:31:12.071Z,-1.84
2018-02-05T04:33:44.564Z,-1.86
2018-02-05T04:36:14.999Z,-1.86
2018-02-05T04:38:44.536Z,-1.87
2018-02-05T04:41:15.362Z,-1.87
2018-02-05T04:43:49.449Z,-1.89
2018-02-05T04:46:18.171Z,-1.92
2018-02-05T04:48:48.433Z,-1.93
2018-02-05T04:51:19.314Z,-1.95
2018-02-05T04:53:47.816Z,-1.97
2018-02-05T04:56:19.166Z,-1.99
2018-02-05T04:58:49.310Z,-2.01
2018-02-05T05:01:19.400Z,-2.02
2018-02-05T05:03:48.648Z,-2.03
2018-02-05T05:06:17.180Z,-2.04
2018-02-05T05:08:47.342Z,-2.06
2018-02-05T05:11:18.616Z,-2.07
2018-02-05T05:13:49.743Z,-2.08
2018-02-05T05:16:20.782Z,-2.06
2018-02-05T05:18:50.167Z,-2.08
2018-02-05T05:21:19.870Z,-2.11
2018-02-05T05:23:51.044Z,-2.13
2018-02-05T05:26:22.276Z,-2.14
2018-02-05T05:28:51.870Z,-2.14
2018-02-05T05:31:28.543Z,-2.14
2018-02-05T05:33:57.730Z,-2.16
2018-02-05T05:36:26.902Z,-2.17
2018-02-05T05:38:55.387Z,-2.16
2018-02-05T05:41:25.948Z,-2.19
2018-02-05T05:44:07.542Z,-2.22
2018-02-05T05:46:36.118Z,-2.20
2018-02-05T05:49:06.446Z,-2.21
2018-02-05T05:51:45.540Z,-2.22
2018-02-05T05:54:35.574Z,-2.20
2018-02-05T05:57:06.728Z,-2.21
2018-02-05T05:59:37.960Z,-2.22
2018-02-05T06:02:07.408Z,-2.22
2018-02-05T06:04:38.042Z,-2.22
2018-02-05T06:07:08.277Z,-2.22
2018-02-05T06:09:38.548Z,-2.23
2018-02-05T06:12:08.728Z,-2.26
2018-02-05T06:14:38.442Z,-2.26
2018-02-05T06:17:07.042Z,-2.29
2018-02-05T06:19:38.243Z,-2.31
2018-02-05T06:22:08.454Z,-2.32
2018-02-05T06:24:37.368Z,-2.35
2018-02-05T06:27:08.400Z,-2.35
2018-02-05T06:29:36.914Z,-2.36
2018-02-05T06:32:07.258Z,-2.37
2018-02-05T06:34:38.303Z,-2.37
2018-02-05T06:37:08.600Z,-2.37
2018-02-05T06:39:39.446Z,-2.38
2018-02-05T06:42:11.283Z,-2.38
2018-02-05T06:44:41.752Z,-2.38
2018-02-05T06:47:11.533Z,-2.39
2018-02-05T06:49:40.154Z,-2.39
2018-02-05T06:52:20.903Z,-2.37
2018-02-05T06:55:01.071Z,-2.37
2018-02-05T06:57:31.503Z,-2.36
2018-02-05T07:00:02.527Z,-2.33
2018-02-05T07:02:38.987Z,-2.32
2018-02-05T07:05:14.605Z,-2.32
2018-02-05T07:07:45.082Z,-2.31
2018-02-05T07:10:15.227Z,-2.30
2018-02-05T07:12:46.649Z,-2.29
2018-02-05T07:15:15.900Z,-2.27
2018-02-05T07:17:46.571Z,-2.26
2018-02-05T07:20:17.307Z,-2.26
2018-02-05T07:22:48.732Z,-2.22
2018-02-05T07:25:17.201Z,-2.21
2018-02-05T07:27:46.450Z,-2.18
2018-02-05T07:30:16.682Z,-2.16
2018-02-05T07:32:47.865Z,-2.13
2018-02-05T07:35:20.105Z,-2.08
2018-02-05T07:37:50.047Z,-2.03
2018-02-05T07:40:21.313Z,-1.98
2018-02-05T07:42:52.531Z,-1.94
2018-02-05T07:45:22.971Z,-1.90
2018-02-05T07:47:54.003Z,-1.83
2018-02-05T07:50:24.121Z,-1.76
2018-02-05T07:52:54.425Z,-1.71
2018-02-05T07:55:28.175Z,-1.69
2018-02-05T07:57:59.167Z,-1.63
2018-02-05T08:00:34.122Z,-1.57
2018-02-05T08:03:04.331Z,-1.53
2018-02-05T08:05:36.011Z,-1.49
2018-02-05T08:08:04.439Z,-1.43
2018-02-05T08:10:34.585Z,-1.37
2018-02-05T08:13:04.887Z,-1.30
2018-02-05T08:15:36.615Z,-1.22
2018-02-05T08:18:05.911Z,-1.16
2018-02-05T08:20:36.105Z,-1.10
2018-02-05T08:23:04.786Z,-1.02
2018-02-05T08:25:34.959Z,-0.97
2018-02-05T08:28:03.516Z,-0.93
2018-02-05T08:30:36.983Z,-0.88
2018-02-05T08:36:00.433Z,-0.78
2018-02-05T08:38:39.507Z,-0.76
2018-02-05T08:41:10.753Z,-0.70
2018-02-05T08:43:39.339Z,-0.62
2018-02-05T08:46:09.569Z,-0.51
2018-02-05T08:48:42.659Z,-0.42
2018-02-05T08:51:13.789Z,-0.35
2018-02-05T08:53:44.112Z,-0.30
2018-02-05T08:56:13.568Z,-0.19
2018-02-05T08:58:43.837Z,-0.11
2018-02-05T09:01:16.425Z,-0.03
2018-02-05T09:03:52.104Z,0.04
2018-02-05T09:06:22.425Z,0.05
2018-02-05T09:08:56.006Z,0.11
2018-02-05T09:11:26.430Z,0.19
2018-02-05T09:13:57.867Z,0.28
2018-02-05T09:16:27.498Z,0.40
2018-02-05T09:18:56.071Z,0.50
2018-02-05T09:21:25.611Z,0.58
2018-02-05T09:23:55.884Z,0.62
2018-02-05T09:26:26.776Z,0.73
2018-02-05T09:28:55.479Z,0.71
2018-02-05T09:31:43.467Z,0.84
2018-02-05T09:34:13.723Z,0.89
2018-02-05T09:36:45.062Z,0.89
2018-02-05T09:39:24.367Z,0.99
2018-02-05T09:41:55.531Z,1.01
2018-02-05T09:44:24.257Z,1.08
2018-02-05T09:46:53.534Z,1.06
2018-02-05T09:49:28.006Z,1.07
2018-02-05T09:51:58.267Z,1.17
2018-02-05T09:54:30.053Z,1.20
2018-02-05T09:57:00.553Z,1.29
2018-02-05T09:59:31.388Z,1.35
2018-02-05T10:02:03.559Z,1.36
2018-02-05T10:04:34.486Z,1.35
2018-02-05T10:07:05.148Z,1.34
2018-02-05T10:09:37.494Z,1.26
2018-02-05T10:12:08.834Z,1.33
2018-02-05T10:14:40.770Z,1.43
2018-02-05T10:17:12.581Z,1.39
2018-02-05T10:19:41.568Z,1.33
2018-02-05T10:22:10.583Z,1.41
2018-02-05T10:24:39.267Z,1.39
2018-02-05T10:27:08.056Z,1.48
2018-02-05T10:29:42.642Z,1.37
2018-02-05T10:32:14.633Z,1.42
2018-02-05T10:34:43.968Z,1.42
2018-02-05T10:37:12.640Z,1.43
2018-02-05T10:39:43.034Z,1.46
2018-02-05T10:42:16.558Z,1.54
2018-02-05T10:44:46.990Z,1.64
2018-02-05T10:47:18.036Z,1.72
2018-02-05T10:49:51.660Z,1.67
2018-02-05T10:52:22.582Z,1.71
2018-02-05T10:54:52.222Z,1.53
2018-02-05T10:57:21.436Z,1.58
2018-02-05T10:59:51.726Z,1.57
2018-02-05T11:02:24.994Z,1.59
2018-02-05T11:04:53.602Z,1.59
2018-02-05T11:07:22.085Z,1.64
2018-02-05T11:09:50.574Z,1.72
2018-02-05T11:12:25.276Z,1.71
2018-02-05T11:14:55.524Z,1.75
2018-02-05T11:17:25.018Z,1.84
2018-02-05T11:19:53.554Z,1.79
2018-02-05T11:22:32.231Z,1.74
2018-02-05T11:25:02.419Z,1.72
2018-02-05T11:27:35.619Z,1.77
2018-02-05T11:30:05.670Z,1.83
2018-02-05T11:32:36.862Z,1.98
2018-02-05T11:35:08.039Z,2.02
2018-02-05T11:37:37.502Z,2.11
2018-02-05T11:40:06.158Z,2.14
2018-02-05T11:42:36.496Z,2.23
2018-02-05T11:45:05.984Z,2.36
2018-02-05T11:47:34.569Z,2.46
2018-02-05T11:50:03.144Z,2.44
2018-02-05T11:52:34.861Z,2.56
2018-02-05T11:55:05.124Z,2.66
2018-02-05T11:57:34.761Z,2.54
2018-02-05T12:00:18.068Z,2.62
2018-02-05T12:02:48.497Z,2.71
2018-02-05T12:05:21.280Z,2.69
2018-02-05T12:07:50.586Z,2.78
2018-02-05T12:10:35.421Z,2.81
2018-02-05T12:13:06.309Z,2.84
2018-02-05T12:15:35.528Z,2.96
2018-02-05T12:18:06.540Z,3.03
2018-02-05T12:20:39.014Z,3.09
2018-02-05T12:23:07.696Z,3.21
2018-02-05T12:25:38.028Z,3.31
2018-02-05T12:28:09.072Z,3.45
2018-02-05T12:30:39.214Z,3.51
2018-02-05T12:33:12.487Z,3.51
2018-02-05T12:35:41.228Z,3.45
2018-02-05T12:38:11.493Z,3.40
2018-02-05T12:40:42.632Z,3.21
2018-02-05T12:43:14.036Z,3.15
2018-02-05T12:45:46.060Z,3.08
2018-02-05T12:48:16.398Z,3.12
2018-02-05T12:50:46.735Z,3.18
2018-02-05T12:53:17.070Z,3.21
2018-02-05T12:55:48.489Z,3.24
2018-02-05T12:58:17.824Z,3.28
2018-02-05T13:00:58.983Z,3.26
2018-02-05T13:06:32.605Z,3.29
2018-02-05T13:09:01.263Z,3.27
2018-02-05T13:11:33.083Z,3.22
2018-02-05T13:14:03.220Z,3.16
2018-02-05T13:16:33.655Z,3.13
2018-02-05T13:19:04.710Z,3.07
2018-02-05T13:21:36.793Z,3.13
2018-02-05T13:24:10.435Z,3.05
2018-02-05T13:26:41.117Z,2.99
2018-02-05T13:29:12.318Z,2.99
2018-02-05T13:31:44.280Z,3.13
2018-02-05T13:34:14.524Z,3.21
2018-02-05T13:36:45.587Z,3.25
2018-02-05T13:39:22.977Z,3.27
2018-02-05T13:41:51.973Z,3.25
2018-02-05T13:44:22.133Z,3.17
2018-02-05T13:46:50.731Z,3.16
2018-02-05T13:49:24.147Z,3.24
2018-02-05T13:51:55.665Z,3.21
2018-02-05T13:54:25.155Z,3.28
2018-02-05T13:56:54.352Z,3.22
2018-02-05T13:59:24.735Z,3.12
2018-02-05T14:01:56.219Z,3.12
2018-02-05T14:04:27.266Z,3.06
2018-02-05T14:06:59.841Z,3.10
2018-02-05T14:09:28.433Z,3.16
2018-02-05T14:11:57.639Z,3.21
2018-02-05T14:14:26.324Z,3.28
2018-02-05T14:16:54.900Z,3.24
2018-02-05T14:19:35.872Z,3.17
2018-02-05T14:22:07.061Z,3.13
2018-02-05T14:24:35.709Z,3.08
2018-02-05T14:27:06.046Z,3.07
2018-02-05T14:29:37.182Z,3.04
2018-02-05T14:32:08.102Z,3.01
2018-02-05T14:34:36.693Z,2.90
2018-02-05T14:37:07.875Z,2.89
2018-02-05T14:39:39.509Z,2.88
2018-02-05T14:42:08.725Z,2.88
2018-02-05T14:44:38.981Z,2.88
2018-02-05T14:47:08.443Z,2.88
2018-02-05T14:49:37.037Z,2.90
2018-02-05T14:52:07.344Z,2.87
2018-02-05T14:54:36.767Z,2.83
2018-02-05T14:59:46.387Z,2.77
2018-02-05T15:02:17.425Z,2.75
2018-02-05T15:04:47.690Z,2.74
2018-02-05T15:07:18.725Z,2.68
2018-02-05T15:09:47.338Z,2.66
2018-02-05T15:12:17.539Z,2.60
2018-02-05T15:14:46.170Z,2.57
2018-02-05T15:17:14.810Z,2.54
2018-02-05T15:19:43.309Z,2.54
2018-02-05T15:22:11.992Z,2.57
2018-02-05T15:24:46.705Z,2.65
2018-02-05T15:27:17.039Z,2.74
2018-02-05T15:29:48.080Z,2.86
2018-02-05T15:32:23.324Z,2.91
2018-02-05T15:34:53.456Z,2.85
2018-02-05T15:37:22.131Z,2.75
2018-02-05T15:40:04.970Z,2.64
2018-02-05T15:42:33.644Z,2.49
2018-02-05T15:45:02.323Z,2.41
2018-02-05T15:47:30.880Z,2.32
2018-02-05T15:50:02.120Z,2.24
2018-02-05T15:52:30.772Z,2.16
2018-02-05T15:55:01.040Z,2.17
2018-02-05T15:57:30.402Z,2.12
2018-02-05T15:59:59.168Z,2.08
2018-02-05T16:02:34.817Z,2.03
2018-02-05T16:05:04.520Z,1.98
2018-02-05T16:07:33.116Z,1.93
2018-02-05T16:10:01.698Z,1.89
2018-02-05T16:12:30.290Z,1.83
2018-02-05T16:14:59.075Z,1.77
2018-02-05T16:17:28.675Z,1.73
2018-02-05T16:19:57.193Z,1.71
2018-02-05T16:22:26.077Z,1.66
2018-02-05T16:24:56.433Z,1.63
2018-02-05T16:27:25.943Z,1.58
2018-02-05T16:29:56.253Z,1.54
2018-02-05T16:32:29.198Z,1.50
2018-02-05T16:34:58.608Z,1.47
2018-02-05T16:37:27.303Z,1.43
2018-02-05T16:40:00.662Z,1.40
2018-02-05T16:42:29.496Z,1.37
2018-02-05T16:44:59.853Z,1.34
2018-02-05T16:47:35.779Z,1.28
2018-02-05T16:50:05.486Z,1.27
2018-02-05T16:52:35.869Z,1.24
2018-02-05T16:55:05.343Z,1.23
2018-02-05T16:57:33.965Z,1.21
2018-02-05T17:00:05.078Z,1.19
2018-02-05T17:02:35.663Z,1.16
2018-02-05T17:05:05.918Z,1.12
2018-02-05T17:07:37.767Z,1.08
2018-02-05T17:10:08.122Z,1.05
2018-02-05T17:12:41.713Z,1.01
2018-02-05T17:15:13.856Z,0.98
2018-02-05T17:17:42.981Z,0.96
2018-02-05T17:20:11.541Z,0.95
2018-02-05T17:22:40.022Z,0.92
2018-02-05T17:25:09.345Z,0.90
2018-02-05T17:27:38.022Z,0.86
2018-02-05T17:30:09.886Z,0.84
2018-02-05T17:32:38.567Z,0.81
2018-02-05T17:35:08.919Z,0.78
2018-02-05T17:37:42.735Z,0.75
2018-02-05T17:40:15.887Z,0.72
2018-02-05T17:42:46.195Z,0.69
2018-02-05T17:45:25.650Z,0.67
2018-02-05T17:47:54.332Z,0.64
2018-02-05T17:50:24.631Z,0.61
2018-02-05T17:52:56.450Z,0.60
2018-02-05T17:55:25.969Z,0.53
2018-02-05T17:57:54.620Z,0.56
2018-02-05T18:00:32.333Z,0.51
2018-02-05T18:03:01.748Z,0.49
2018-02-05T18:05:32.251Z,0.48
2018-02-05T18:08:09.977Z,0.44
2018-02-05T18:10:38.630Z,0.41
2018-02-05T18:13:08.936Z,0.38
2018-02-05T18:15:41.597Z,0.36
2018-02-05T18:18:11.027Z,0.32
2018-02-05T18:20:40.475Z,0.29
2018-02-05T18:23:09.973Z,0.27
2018-02-05T18:25:38.551Z,0.26
2018-02-05T18:28:08.985Z,0.24
2018-02-05T18:30:42.509Z,0.23
2018-02-05T18:33:12.857Z,0.23
2018-02-05T18:35:43.039Z,0.23
2018-02-05T18:38:11.714Z,0.21
2018-02-05T18:40:42.007Z,0.19
2018-02-05T18:43:32.548Z,0.16
2018-02-05T18:46:01.837Z,0.15
2018-02-05T18:48:30.994Z,0.15
2018-02-05T18:51:01.232Z,0.15
2018-02-05T18:53:31.059Z,0.15
2018-02-05T18:56:00.419Z,0.15
2018-02-05T18:58:29.047Z,0.16
2018-02-05T19:00:58.556Z,0.16
2018-02-05T19:03:28.761Z,0.18
2018-02-05T19:05:59.569Z,0.17
2018-02-05T19:08:36.769Z,0.16
2018-02-05T19:11:06.280Z,0.12
2018-02-05T19:13:37.766Z,0.08
2018-02-05T19:16:09.006Z,0.08
2018-02-05T19:18:37.902Z,0.06
2018-02-05T19:21:09.239Z,0.04
2018-02-05T19:23:39.364Z,0.01
2018-02-05T19:26:08.194Z,0.00
2018-02-05T19:28:38.727Z,-0.05
2018-02-05T19:31:12.835Z,-0.05
2018-02-05T19:33:42.136Z,-0.08
2018-02-05T19:36:12.267Z,-0.10
2018-02-05T19:38:49.208Z,-0.14
2018-02-05T19:41:19.083Z,-0.21
2018-02-05T19:43:48.038Z,-0.25
2018-02-05T19:46:18.326Z,-0.29
2018-02-05T19:48:52.421Z,-0.33
2018-02-05T19:51:25.749Z,-0.37
2018-02-05T19:53:57.212Z,-0.42
2018-02-05T19:56:27.768Z,-0.44
2018-02-05T20:08:43.307Z,-0.43
2018-02-05T20:11:14.518Z,-0.44
2018-02-05T20:13:45.054Z,-0.47
2018-02-05T20:16:16.249Z,-0.50
2018-02-05T20:18:47.030Z,-0.53
2018-02-05T20:21:15.972Z,-0.54
2018-02-05T20:23:47.402Z,-0.57
2018-02-05T20:26:19.881Z,-0.59
2018-02-05T20:28:48.515Z,-0.60
2018-02-05T20:31:17.412Z,-0.62
2018-02-05T20:33:47.131Z,-0.65
2018-02-05T20:36:15.962Z,-0.69
2018-02-05T20:38:44.688Z,-0.72
2018-02-05T20:41:13.351Z,-0.74
2018-02-05T20:43:42.038Z,-0.75
2018-02-05T20:46:10.933Z,-0.75
2018-02-05T20:48:39.608Z,-0.76
2018-02-05T20:51:08.208Z,-0.74
2018-02-05T20:53:36.792Z,-0.77
2018-02-05T20:56:05.483Z,-0.80
2018-02-05T20:58:36.614Z,-0.81
2018-02-05T21:01:07.635Z,-0.81
2018-02-05T21:03:37.898Z,-0.84
2018-02-05T21:06:07.519Z,-0.84
2018-02-05T21:08:36.075Z,-0.86
2018-02-05T21:11:04.840Z,-0.86
2018-02-05T21:13:33.332Z,-0.87
2018-02-05T21:16:01.942Z,-0.89
2018-02-05T21:18:30.630Z,-0.92
2018-02-05T21:20:59.998Z,-0.96
2018-02-05T21:23:30.263Z,-0.98
2018-02-05T21:25:58.957Z,-0.98
2018-02-05T21:28:27.536Z,-1.00
2018-02-05T21:30:56.103Z,-1.02
2018-02-05T21:33:26.525Z,-1.05
2018-02-05T21:35:57.588Z,-1.08
2018-02-05T21:38:26.087Z,-1.09
2018-02-05T21:40:54.763Z,-1.11
2018-02-05T21:43:24.984Z,-1.12
2018-02-05T21:45:53.577Z,-1.12
2018-02-05T21:48:22.023Z,-1.11
2018-02-05T21:50:52.336Z,-1.14
2018-02-05T21:53:24.655Z,-1.16
2018-02-05T21:55:53.856Z,-1.15
2018-02-05T21:58:23.936Z,-1.18
2018-02-05T22:00:54.421Z,-1.19
2018-02-05T22:03:23.810Z,-1.19
2018-02-05T22:05:56.232Z,-1.20
2018-02-05T22:08:26.507Z,-1.22
2018-02-05T22:10:57.666Z,-1.24
2018-02-05T22:13:26.457Z,-1.26
2018-02-05T22:15:58.030Z,-1.29
2018-02-05T22:18:28.656Z,-1.29
2018-02-05T22:20:59.042Z,-1.31
2018-02-05T22:23:30.396Z,-1.31
2018-02-05T22:25:59.934Z,-1.34
2018-02-05T22:28:29.022Z,-1.34
2018-02-05T22:30:59.582Z,-1.38
2018-02-05T22:33:31.442Z,-1.39
2018-02-05T22:36:00.656Z,-1.41
2018-02-05T22:38:31.836Z,-1.42
2018-02-05T22:41:00.428Z,-1.42
2018-02-05T22:43:29.047Z,-1.45
2018-02-05T22:45:57.607Z,-1.47
2018-02-05T22:48:26.107Z,-1.47
2018-02-05T22:51:07.166Z,-1.50
2018-02-05T22:53:36.582Z,-1.53
2018-02-05T22:56:05.039Z,-1.54
2018-02-05T22:58:35.222Z,-1.55
2018-02-05T23:01:05.464Z,-1.57
2018-02-05T23:03:35.832Z,-1.59
2018-02-05T23:06:06.068Z,-1.61
2018-02-05T23:11:26.250Z,-1.65
2018-02-05T23:13:58.521Z,-1.65
2018-02-05T23:16:27.011Z,-1.67
2018-02-05T23:18:57.279Z,-1.69
2018-02-05T23:21:26.520Z,-1.72
2018-02-05T23:23:55.015Z,-1.75
2018-02-05T23:26:24.115Z,-1.75
2018-02-05T23:28:52.592Z,-1.77
2018-02-05T23:31:21.083Z,-1.82
2018-02-05T23:33:49.769Z,-1.83
2018-02-05T23:36:18.509Z,-1.85
2018-02-05T23:38:50.621Z,-1.88
2018-02-05T23:41:21.565Z,-1.90
2018-02-05T23:43:51.784Z,-1.93
2018-02-05T23:46:24.551Z,-1.94
2018-02-05T23:48:57.235Z,-1.96
2018-02-05T23:51:29.289Z,-1.97
2018-02-05T23:53:59.474Z,-2.00
2018-02-05T23:56:28.023Z,-2.02
2018-02-05T23:58:56.614Z,-2.03
